<?xml version="1.0" encoding="UTF-8" standalone="no" ?>
<gpx xmlns="http://www.topografix.com/GPX/1/1" xmlns:xsi="http://www.w3.org/2001/XMLSchema-instance" xsi:schemaLocation="http://www.topografix.com/GPX/1/1 http://www.topografix.com/GPX/1/1/gpx.xsd" version="1.1" creator="VisuGPX - https://www.visugpx.com">
  <metadata>
    <name>20150726 - Asinao Croce - Manque début: D 90m L 466m</name>
    <desc><![CDATA[Asinao - Croce

Manque le début, ajouter  90m pour le dénivelé et  466m pour la longueur.

GR20 et variantes

GR20SUD201507]]></desc>
  </metadata>
  <trk>
    <name><![CDATA[2015-07-26 08:19]]></name>
    <desc><![CDATA[<h1>OruxMaps</h1><br /><hr align="center" width="480" style="height: 2px; width: 517px"/><h2>Nom: 2015-07-26 08:19</h2><br /><p>Temps de départ: 07/26/2015 08:20</p><p>Temps d'arrivée: 07/26/2015 16:17</p><p>Distance: 11,1km (07:57)</p><p>Temps déplacement: 03:45</p><p>Vitesse moyenne: 1,4km/h</p><p>Vitesse moyenne: 2,9km/h</p><p>Vitess Max.: 6,6km/h</p><p>Altitude minimale: 1430m</p><p>Altitude maximale: 2133m</p><p>Vitesse d'élévation: 256,4m/h</p><p>Vitesse de descente: -170,4m/h</p><p>Gain Altitude: 696m</p><p>Perte Altitude: -852m</p><p>Temps d'élévation: 02:43</p><p>Temps de descente: 05:00</p><hr align="center" width="480" style="height: 2px; width: 517px"/>]]></desc>
    <trkseg>
      <trkpt lat="41.84348" lon="9.21078">
        <ele>1699.47</ele>
        <time>2015-07-26T06:20:16Z</time>
      </trkpt>
      <trkpt lat="41.84364" lon="9.21064">
        <ele>1699.26</ele>
        <time>2015-07-26T06:23:49Z</time>
      </trkpt>
      <trkpt lat="41.84377" lon="9.21048">
        <ele>1708.85</ele>
        <time>2015-07-26T06:24:29Z</time>
      </trkpt>
      <trkpt lat="41.84387" lon="9.21027">
        <ele>1706.09</ele>
        <time>2015-07-26T06:25:30Z</time>
      </trkpt>
      <trkpt lat="41.84399" lon="9.21007">
        <ele>1717.84</ele>
        <time>2015-07-26T06:26:41Z</time>
      </trkpt>
      <trkpt lat="41.84411" lon="9.2099">
        <ele>1724.75</ele>
        <time>2015-07-26T06:27:42Z</time>
      </trkpt>
      <trkpt lat="41.84422" lon="9.2097">
        <ele>1721.1</ele>
        <time>2015-07-26T06:28:33Z</time>
      </trkpt>
      <trkpt lat="41.84432" lon="9.20949">
        <ele>1734.07</ele>
        <time>2015-07-26T06:29:15Z</time>
      </trkpt>
      <trkpt lat="41.8444" lon="9.20928">
        <ele>1734.08</ele>
        <time>2015-07-26T06:30:52Z</time>
      </trkpt>
      <trkpt lat="41.84445" lon="9.20904">
        <ele>1737.09</ele>
        <time>2015-07-26T06:31:34Z</time>
      </trkpt>
      <trkpt lat="41.84463" lon="9.20898">
        <ele>1749.34</ele>
        <time>2015-07-26T06:32:46Z</time>
      </trkpt>
      <trkpt lat="41.84479" lon="9.20886">
        <ele>1761.42</ele>
        <time>2015-07-26T06:34:29Z</time>
      </trkpt>
      <trkpt lat="41.84495" lon="9.20875">
        <ele>1767.25</ele>
        <time>2015-07-26T06:37:58Z</time>
      </trkpt>
      <trkpt lat="41.84511" lon="9.20862">
        <ele>1771.86</ele>
        <time>2015-07-26T06:39:42Z</time>
      </trkpt>
      <trkpt lat="41.84522" lon="9.20842">
        <ele>1777.4</ele>
        <time>2015-07-26T06:41:29Z</time>
      </trkpt>
      <trkpt lat="41.84533" lon="9.20824">
        <ele>1791.89</ele>
        <time>2015-07-26T06:43:46Z</time>
      </trkpt>
      <trkpt lat="41.84551" lon="9.20818">
        <ele>1811.42</ele>
        <time>2015-07-26T06:45:55Z</time>
      </trkpt>
      <trkpt lat="41.84568" lon="9.20828">
        <ele>1829.95</ele>
        <time>2015-07-26T06:48:11Z</time>
      </trkpt>
      <trkpt lat="41.84584" lon="9.20817">
        <ele>1835.96</ele>
        <time>2015-07-26T06:50:30Z</time>
      </trkpt>
      <trkpt lat="41.84595" lon="9.20797">
        <ele>1847.15</ele>
        <time>2015-07-26T06:52:17Z</time>
      </trkpt>
      <trkpt lat="41.84613" lon="9.20795">
        <ele>1850.62</ele>
        <time>2015-07-26T06:57:53Z</time>
      </trkpt>
      <trkpt lat="41.84631" lon="9.20797">
        <ele>1853.71</ele>
        <time>2015-07-26T06:59:21Z</time>
      </trkpt>
      <trkpt lat="41.84649" lon="9.208">
        <ele>1875.46</ele>
        <time>2015-07-26T07:02:04Z</time>
      </trkpt>
      <trkpt lat="41.84653" lon="9.20776">
        <ele>1881.8</ele>
        <time>2015-07-26T07:03:45Z</time>
      </trkpt>
      <trkpt lat="41.84671" lon="9.20769">
        <ele>1894.22</ele>
        <time>2015-07-26T07:05:52Z</time>
      </trkpt>
      <trkpt lat="41.84685" lon="9.20754">
        <ele>1901.39</ele>
        <time>2015-07-26T07:07:26Z</time>
      </trkpt>
      <trkpt lat="41.847" lon="9.2074">
        <ele>1915.79</ele>
        <time>2015-07-26T07:11:59Z</time>
      </trkpt>
      <trkpt lat="41.84718" lon="9.20741">
        <ele>1934.33</ele>
        <time>2015-07-26T07:14:11Z</time>
      </trkpt>
      <trkpt lat="41.84736" lon="9.2074">
        <ele>1947.07</ele>
        <time>2015-07-26T07:15:50Z</time>
      </trkpt>
      <trkpt lat="41.84735" lon="9.20715">
        <ele>1943.77</ele>
        <time>2015-07-26T07:17:02Z</time>
      </trkpt>
      <trkpt lat="41.84738" lon="9.2069">
        <ele>1939.06</ele>
        <time>2015-07-26T07:17:31Z</time>
      </trkpt>
      <trkpt lat="41.84734" lon="9.20666">
        <ele>1934.61</ele>
        <time>2015-07-26T07:18:07Z</time>
      </trkpt>
      <trkpt lat="41.84729" lon="9.20643">
        <ele>1942.08</ele>
        <time>2015-07-26T07:19:08Z</time>
      </trkpt>
      <trkpt lat="41.84721" lon="9.20621">
        <ele>1944.89</ele>
        <time>2015-07-26T07:20:38Z</time>
      </trkpt>
      <trkpt lat="41.84719" lon="9.20597">
        <ele>1943.06</ele>
        <time>2015-07-26T07:21:56Z</time>
      </trkpt>
      <trkpt lat="41.84706" lon="9.20579">
        <ele>1944.06</ele>
        <time>2015-07-26T07:23:35Z</time>
      </trkpt>
      <trkpt lat="41.84701" lon="9.20555">
        <ele>1944.35</ele>
        <time>2015-07-26T07:24:31Z</time>
      </trkpt>
      <trkpt lat="41.84683" lon="9.20561">
        <ele>1990.12</ele>
        <time>2015-07-26T07:26:38Z</time>
      </trkpt>
      <trkpt lat="41.84675" lon="9.20538">
        <ele>1996.17</ele>
        <time>2015-07-26T07:28:07Z</time>
      </trkpt>
      <trkpt lat="41.84663" lon="9.2052">
        <ele>1997.63</ele>
        <time>2015-07-26T07:29:16Z</time>
      </trkpt>
      <trkpt lat="41.84648" lon="9.20507">
        <ele>1992.34</ele>
        <time>2015-07-26T07:30:56Z</time>
      </trkpt>
      <trkpt lat="41.84633" lon="9.20492">
        <ele>1988.43</ele>
        <time>2015-07-26T07:32:40Z</time>
      </trkpt>
      <trkpt lat="41.84623" lon="9.20471">
        <ele>1990.59</ele>
        <time>2015-07-26T07:34:18Z</time>
      </trkpt>
      <trkpt lat="41.84617" lon="9.20448">
        <ele>2005.69</ele>
        <time>2015-07-26T07:35:47Z</time>
      </trkpt>
      <trkpt lat="41.84626" lon="9.20425">
        <ele>2016.09</ele>
        <time>2015-07-26T07:37:59Z</time>
      </trkpt>
      <trkpt lat="41.84616" lon="9.20405">
        <ele>2023.39</ele>
        <time>2015-07-26T07:39:07Z</time>
      </trkpt>
      <trkpt lat="41.84604" lon="9.20384">
        <ele>2021.69</ele>
        <time>2015-07-26T07:39:42Z</time>
      </trkpt>
      <trkpt lat="41.8459" lon="9.20369">
        <ele>2023.82</ele>
        <time>2015-07-26T07:40:28Z</time>
      </trkpt>
      <trkpt lat="41.84608" lon="9.20366">
        <ele>2028.72</ele>
        <time>2015-07-26T07:53:32Z</time>
      </trkpt>
      <trkpt lat="41.84625" lon="9.20376">
        <ele>2026.74</ele>
        <time>2015-07-26T07:53:52Z</time>
      </trkpt>
      <trkpt lat="41.84643" lon="9.20381">
        <ele>2021.47</ele>
        <time>2015-07-26T07:54:16Z</time>
      </trkpt>
      <trkpt lat="41.84661" lon="9.20375">
        <ele>2004.33</ele>
        <time>2015-07-26T07:54:40Z</time>
      </trkpt>
      <trkpt lat="41.84679" lon="9.20381">
        <ele>2026.98</ele>
        <time>2015-07-26T07:55:02Z</time>
      </trkpt>
      <trkpt lat="41.84696" lon="9.20387">
        <ele>2026.96</ele>
        <time>2015-07-26T07:55:31Z</time>
      </trkpt>
      <trkpt lat="41.84714" lon="9.20395">
        <ele>2025.71</ele>
        <time>2015-07-26T07:56:10Z</time>
      </trkpt>
      <trkpt lat="41.84727" lon="9.20411">
        <ele>2032.71</ele>
        <time>2015-07-26T07:56:54Z</time>
      </trkpt>
      <trkpt lat="41.84729" lon="9.20436">
        <ele>2046.62</ele>
        <time>2015-07-26T07:58:12Z</time>
      </trkpt>
      <trkpt lat="41.84743" lon="9.20452">
        <ele>2047.46</ele>
        <time>2015-07-26T07:59:06Z</time>
      </trkpt>
      <trkpt lat="41.84759" lon="9.20464">
        <ele>2050.15</ele>
        <time>2015-07-26T07:59:55Z</time>
      </trkpt>
      <trkpt lat="41.84773" lon="9.20479">
        <ele>2056.81</ele>
        <time>2015-07-26T08:00:16Z</time>
      </trkpt>
      <trkpt lat="41.84789" lon="9.20491">
        <ele>2064.29</ele>
        <time>2015-07-26T08:00:40Z</time>
      </trkpt>
      <trkpt lat="41.84804" lon="9.20506">
        <ele>2065.2</ele>
        <time>2015-07-26T08:01:15Z</time>
      </trkpt>
      <trkpt lat="41.84813" lon="9.20527">
        <ele>2071.22</ele>
        <time>2015-07-26T08:02:07Z</time>
      </trkpt>
      <trkpt lat="41.84828" lon="9.2054">
        <ele>2076.5</ele>
        <time>2015-07-26T08:02:33Z</time>
      </trkpt>
      <trkpt lat="41.84842" lon="9.20557">
        <ele>2073.16</ele>
        <time>2015-07-26T08:02:59Z</time>
      </trkpt>
      <trkpt lat="41.84857" lon="9.20571">
        <ele>2076.78</ele>
        <time>2015-07-26T08:03:26Z</time>
      </trkpt>
      <trkpt lat="41.84874" lon="9.20584">
        <ele>2078</ele>
        <time>2015-07-26T08:04:14Z</time>
      </trkpt>
      <trkpt lat="41.84886" lon="9.20602">
        <ele>2080.19</ele>
        <time>2015-07-26T08:04:36Z</time>
      </trkpt>
      <trkpt lat="41.84893" lon="9.20624">
        <ele>2087.09</ele>
        <time>2015-07-26T08:05:41Z</time>
      </trkpt>
      <trkpt lat="41.84908" lon="9.20639">
        <ele>2095.9</ele>
        <time>2015-07-26T08:06:53Z</time>
      </trkpt>
      <trkpt lat="41.84917" lon="9.2066">
        <ele>2100.86</ele>
        <time>2015-07-26T08:07:28Z</time>
      </trkpt>
      <trkpt lat="41.8493" lon="9.20677">
        <ele>2110.42</ele>
        <time>2015-07-26T08:08:04Z</time>
      </trkpt>
      <trkpt lat="41.84942" lon="9.20696">
        <ele>2119.88</ele>
        <time>2015-07-26T08:08:34Z</time>
      </trkpt>
      <trkpt lat="41.84943" lon="9.2072">
        <ele>2124.66</ele>
        <time>2015-07-26T08:09:21Z</time>
      </trkpt>
      <trkpt lat="41.84951" lon="9.20742">
        <ele>2133.47</ele>
        <time>2015-07-26T08:16:20Z</time>
      </trkpt>
      <trkpt lat="41.84957" lon="9.20718">
        <ele>2126.48</ele>
        <time>2015-07-26T08:18:27Z</time>
      </trkpt>
      <trkpt lat="41.84944" lon="9.207">
        <ele>2124.08</ele>
        <time>2015-07-26T08:18:47Z</time>
      </trkpt>
      <trkpt lat="41.84932" lon="9.20681">
        <ele>2120.43</ele>
        <time>2015-07-26T08:19:28Z</time>
      </trkpt>
      <trkpt lat="41.84923" lon="9.2066">
        <ele>2115</ele>
        <time>2015-07-26T08:20:12Z</time>
      </trkpt>
      <trkpt lat="41.8491" lon="9.20643">
        <ele>2110.47</ele>
        <time>2015-07-26T08:20:54Z</time>
      </trkpt>
      <trkpt lat="41.84896" lon="9.20627">
        <ele>2102.36</ele>
        <time>2015-07-26T08:21:46Z</time>
      </trkpt>
      <trkpt lat="41.84881" lon="9.20614">
        <ele>2097.94</ele>
        <time>2015-07-26T08:22:45Z</time>
      </trkpt>
      <trkpt lat="41.84874" lon="9.2059">
        <ele>2092.98</ele>
        <time>2015-07-26T08:23:26Z</time>
      </trkpt>
      <trkpt lat="41.8486" lon="9.20573">
        <ele>2088.4</ele>
        <time>2015-07-26T08:23:44Z</time>
      </trkpt>
      <trkpt lat="41.84843" lon="9.20564">
        <ele>2087.1</ele>
        <time>2015-07-26T08:24:29Z</time>
      </trkpt>
      <trkpt lat="41.84832" lon="9.20544">
        <ele>2078.47</ele>
        <time>2015-07-26T08:24:48Z</time>
      </trkpt>
      <trkpt lat="41.84818" lon="9.20527">
        <ele>2079.56</ele>
        <time>2015-07-26T08:25:17Z</time>
      </trkpt>
      <trkpt lat="41.84802" lon="9.20515">
        <ele>2075.01</ele>
        <time>2015-07-26T08:25:43Z</time>
      </trkpt>
      <trkpt lat="41.84788" lon="9.20498">
        <ele>2074.03</ele>
        <time>2015-07-26T08:26:06Z</time>
      </trkpt>
      <trkpt lat="41.84773" lon="9.20485">
        <ele>2069.71</ele>
        <time>2015-07-26T08:26:30Z</time>
      </trkpt>
      <trkpt lat="41.84761" lon="9.20467">
        <ele>2064.28</ele>
        <time>2015-07-26T08:26:52Z</time>
      </trkpt>
      <trkpt lat="41.84748" lon="9.2045">
        <ele>2060.56</ele>
        <time>2015-07-26T08:27:26Z</time>
      </trkpt>
      <trkpt lat="41.84731" lon="9.2044">
        <ele>2053.45</ele>
        <time>2015-07-26T08:28:09Z</time>
      </trkpt>
      <trkpt lat="41.84721" lon="9.2042">
        <ele>2048.01</ele>
        <time>2015-07-26T08:29:17Z</time>
      </trkpt>
      <trkpt lat="41.84715" lon="9.20397">
        <ele>2041.47</ele>
        <time>2015-07-26T08:30:13Z</time>
      </trkpt>
      <trkpt lat="41.84699" lon="9.20385">
        <ele>2035.5</ele>
        <time>2015-07-26T08:30:53Z</time>
      </trkpt>
      <trkpt lat="41.84681" lon="9.20381">
        <ele>2033.34</ele>
        <time>2015-07-26T08:31:12Z</time>
      </trkpt>
      <trkpt lat="41.84664" lon="9.20372">
        <ele>2033.46</ele>
        <time>2015-07-26T08:31:31Z</time>
      </trkpt>
      <trkpt lat="41.84646" lon="9.20377">
        <ele>2032.97</ele>
        <time>2015-07-26T08:31:55Z</time>
      </trkpt>
      <trkpt lat="41.84628" lon="9.20375">
        <ele>2028.73</ele>
        <time>2015-07-26T08:32:18Z</time>
      </trkpt>
      <trkpt lat="41.8461" lon="9.20367">
        <ele>2028.84</ele>
        <time>2015-07-26T08:32:35Z</time>
      </trkpt>
      <trkpt lat="41.84604" lon="9.20345">
        <ele>2022.68</ele>
        <time>2015-07-26T08:48:15Z</time>
      </trkpt>
      <trkpt lat="41.84595" lon="9.20323">
        <ele>2013.67</ele>
        <time>2015-07-26T08:48:52Z</time>
      </trkpt>
      <trkpt lat="41.84581" lon="9.20307">
        <ele>2012.22</ele>
        <time>2015-07-26T08:49:32Z</time>
      </trkpt>
      <trkpt lat="41.84566" lon="9.20292">
        <ele>2010.84</ele>
        <time>2015-07-26T08:49:55Z</time>
      </trkpt>
      <trkpt lat="41.8455" lon="9.20281">
        <ele>2013.09</ele>
        <time>2015-07-26T08:50:14Z</time>
      </trkpt>
      <trkpt lat="41.84535" lon="9.20267">
        <ele>2009.43</ele>
        <time>2015-07-26T08:50:34Z</time>
      </trkpt>
      <trkpt lat="41.8452" lon="9.20252">
        <ele>2010.16</ele>
        <time>2015-07-26T08:51:10Z</time>
      </trkpt>
      <trkpt lat="41.84511" lon="9.20231">
        <ele>2008.98</ele>
        <time>2015-07-26T08:51:31Z</time>
      </trkpt>
      <trkpt lat="41.84499" lon="9.20211">
        <ele>2010.12</ele>
        <time>2015-07-26T08:51:55Z</time>
      </trkpt>
      <trkpt lat="41.84496" lon="9.20186">
        <ele>2005.09</ele>
        <time>2015-07-26T08:52:23Z</time>
      </trkpt>
      <trkpt lat="41.84487" lon="9.20164">
        <ele>2004.62</ele>
        <time>2015-07-26T08:53:01Z</time>
      </trkpt>
      <trkpt lat="41.84479" lon="9.20142">
        <ele>2005.89</ele>
        <time>2015-07-26T08:53:31Z</time>
      </trkpt>
      <trkpt lat="41.84468" lon="9.20123">
        <ele>2001.55</ele>
        <time>2015-07-26T08:53:57Z</time>
      </trkpt>
      <trkpt lat="41.84462" lon="9.201">
        <ele>2002.09</ele>
        <time>2015-07-26T08:54:47Z</time>
      </trkpt>
      <trkpt lat="41.84461" lon="9.20075">
        <ele>1997.93</ele>
        <time>2015-07-26T08:55:15Z</time>
      </trkpt>
      <trkpt lat="41.84461" lon="9.20051">
        <ele>1992.18</ele>
        <time>2015-07-26T08:56:03Z</time>
      </trkpt>
      <trkpt lat="41.84456" lon="9.20027">
        <ele>1990.5</ele>
        <time>2015-07-26T08:56:55Z</time>
      </trkpt>
      <trkpt lat="41.8446" lon="9.20003">
        <ele>1979.36</ele>
        <time>2015-07-26T08:58:13Z</time>
      </trkpt>
      <trkpt lat="41.84458" lon="9.19979">
        <ele>1973.52</ele>
        <time>2015-07-26T08:58:48Z</time>
      </trkpt>
      <trkpt lat="41.84447" lon="9.1996">
        <ele>1969.12</ele>
        <time>2015-07-26T08:59:28Z</time>
      </trkpt>
      <trkpt lat="41.84442" lon="9.19937">
        <ele>1964.82</ele>
        <time>2015-07-26T09:00:38Z</time>
      </trkpt>
      <trkpt lat="41.84444" lon="9.19913">
        <ele>1958.96</ele>
        <time>2015-07-26T09:01:20Z</time>
      </trkpt>
      <trkpt lat="41.84443" lon="9.19888">
        <ele>1950.55</ele>
        <time>2015-07-26T09:02:12Z</time>
      </trkpt>
      <trkpt lat="41.84435" lon="9.19865">
        <ele>1946.31</ele>
        <time>2015-07-26T09:02:44Z</time>
      </trkpt>
      <trkpt lat="41.84428" lon="9.19842">
        <ele>1941.93</ele>
        <time>2015-07-26T09:03:13Z</time>
      </trkpt>
      <trkpt lat="41.84417" lon="9.19823">
        <ele>1937.78</ele>
        <time>2015-07-26T09:04:01Z</time>
      </trkpt>
      <trkpt lat="41.84405" lon="9.19804">
        <ele>1936.52</ele>
        <time>2015-07-26T09:04:23Z</time>
      </trkpt>
      <trkpt lat="41.84403" lon="9.1978">
        <ele>1936.69</ele>
        <time>2015-07-26T09:04:59Z</time>
      </trkpt>
      <trkpt lat="41.84406" lon="9.19756">
        <ele>1925.76</ele>
        <time>2015-07-26T09:05:44Z</time>
      </trkpt>
      <trkpt lat="41.84413" lon="9.19733">
        <ele>1919.39</ele>
        <time>2015-07-26T09:06:17Z</time>
      </trkpt>
      <trkpt lat="41.8442" lon="9.1971">
        <ele>1914.29</ele>
        <time>2015-07-26T09:07:17Z</time>
      </trkpt>
      <trkpt lat="41.84428" lon="9.19688">
        <ele>1904.88</ele>
        <time>2015-07-26T09:11:01Z</time>
      </trkpt>
      <trkpt lat="41.84436" lon="9.19665">
        <ele>1905.98</ele>
        <time>2015-07-26T09:11:52Z</time>
      </trkpt>
      <trkpt lat="41.84436" lon="9.1964">
        <ele>1907.15</ele>
        <time>2015-07-26T09:12:14Z</time>
      </trkpt>
      <trkpt lat="41.84431" lon="9.19616">
        <ele>1898.86</ele>
        <time>2015-07-26T09:12:32Z</time>
      </trkpt>
      <trkpt lat="41.84424" lon="9.19593">
        <ele>1894.98</ele>
        <time>2015-07-26T09:12:52Z</time>
      </trkpt>
      <trkpt lat="41.84413" lon="9.19573">
        <ele>1893.49</ele>
        <time>2015-07-26T09:13:09Z</time>
      </trkpt>
      <trkpt lat="41.84402" lon="9.19553">
        <ele>1892.71</ele>
        <time>2015-07-26T09:13:27Z</time>
      </trkpt>
      <trkpt lat="41.84393" lon="9.19531">
        <ele>1892.47</ele>
        <time>2015-07-26T09:13:47Z</time>
      </trkpt>
      <trkpt lat="41.84383" lon="9.19511">
        <ele>1892.19</ele>
        <time>2015-07-26T09:14:03Z</time>
      </trkpt>
      <trkpt lat="41.84367" lon="9.19496">
        <ele>1893.37</ele>
        <time>2015-07-26T09:14:22Z</time>
      </trkpt>
      <trkpt lat="41.84358" lon="9.19475">
        <ele>1889.03</ele>
        <time>2015-07-26T09:14:51Z</time>
      </trkpt>
      <trkpt lat="41.84362" lon="9.19452">
        <ele>1884.66</ele>
        <time>2015-07-26T09:15:16Z</time>
      </trkpt>
      <trkpt lat="41.84349" lon="9.19433">
        <ele>1884.71</ele>
        <time>2015-07-26T09:15:47Z</time>
      </trkpt>
      <trkpt lat="41.84337" lon="9.19415">
        <ele>1880.28</ele>
        <time>2015-07-26T09:16:20Z</time>
      </trkpt>
      <trkpt lat="41.84322" lon="9.194">
        <ele>1880.08</ele>
        <time>2015-07-26T09:16:38Z</time>
      </trkpt>
      <trkpt lat="41.84305" lon="9.19392">
        <ele>1874.94</ele>
        <time>2015-07-26T09:17:03Z</time>
      </trkpt>
      <trkpt lat="41.84288" lon="9.19384">
        <ele>1874.1</ele>
        <time>2015-07-26T09:17:23Z</time>
      </trkpt>
      <trkpt lat="41.84271" lon="9.19376">
        <ele>1873.47</ele>
        <time>2015-07-26T09:17:42Z</time>
      </trkpt>
      <trkpt lat="41.84256" lon="9.19362">
        <ele>1872.52</ele>
        <time>2015-07-26T09:18:05Z</time>
      </trkpt>
      <trkpt lat="41.8424" lon="9.19351">
        <ele>1871.27</ele>
        <time>2015-07-26T09:18:22Z</time>
      </trkpt>
      <trkpt lat="41.84226" lon="9.19335">
        <ele>1870.47</ele>
        <time>2015-07-26T09:18:55Z</time>
      </trkpt>
      <trkpt lat="41.84211" lon="9.19322">
        <ele>1869.47</ele>
        <time>2015-07-26T09:19:12Z</time>
      </trkpt>
      <trkpt lat="41.84199" lon="9.19302">
        <ele>1867.31</ele>
        <time>2015-07-26T09:19:36Z</time>
      </trkpt>
      <trkpt lat="41.84185" lon="9.19285">
        <ele>1868.84</ele>
        <time>2015-07-26T09:19:54Z</time>
      </trkpt>
      <trkpt lat="41.84176" lon="9.19263">
        <ele>1863.39</ele>
        <time>2015-07-26T09:20:19Z</time>
      </trkpt>
      <trkpt lat="41.84171" lon="9.1924">
        <ele>1860.22</ele>
        <time>2015-07-26T09:20:40Z</time>
      </trkpt>
      <trkpt lat="41.84166" lon="9.19215">
        <ele>1859.18</ele>
        <time>2015-07-26T09:20:59Z</time>
      </trkpt>
      <trkpt lat="41.84156" lon="9.19195">
        <ele>1855.03</ele>
        <time>2015-07-26T09:21:31Z</time>
      </trkpt>
      <trkpt lat="41.84145" lon="9.19176">
        <ele>1907.87</ele>
        <time>2015-07-26T09:22:06Z</time>
      </trkpt>
      <trkpt lat="41.84133" lon="9.19157">
        <ele>1840.86</ele>
        <time>2015-07-26T09:23:06Z</time>
      </trkpt>
      <trkpt lat="41.84122" lon="9.19137">
        <ele>1835.94</ele>
        <time>2015-07-26T09:24:03Z</time>
      </trkpt>
      <trkpt lat="41.84114" lon="9.19115">
        <ele>1832.63</ele>
        <time>2015-07-26T09:24:30Z</time>
      </trkpt>
      <trkpt lat="41.84106" lon="9.19093">
        <ele>1846.4</ele>
        <time>2015-07-26T09:25:49Z</time>
      </trkpt>
      <trkpt lat="41.84104" lon="9.19069">
        <ele>1833.54</ele>
        <time>2015-07-26T09:27:05Z</time>
      </trkpt>
      <trkpt lat="41.8411" lon="9.19046">
        <ele>1819.29</ele>
        <time>2015-07-26T09:28:31Z</time>
      </trkpt>
      <trkpt lat="41.84113" lon="9.19022">
        <ele>1808.96</ele>
        <time>2015-07-26T09:29:43Z</time>
      </trkpt>
      <trkpt lat="41.84128" lon="9.19008">
        <ele>1804.65</ele>
        <time>2015-07-26T09:30:55Z</time>
      </trkpt>
      <trkpt lat="41.84131" lon="9.18984">
        <ele>1798.65</ele>
        <time>2015-07-26T09:31:50Z</time>
      </trkpt>
      <trkpt lat="41.84144" lon="9.18967">
        <ele>1810.91</ele>
        <time>2015-07-26T09:32:27Z</time>
      </trkpt>
      <trkpt lat="41.84158" lon="9.18952">
        <ele>1786.24</ele>
        <time>2015-07-26T09:33:31Z</time>
      </trkpt>
      <trkpt lat="41.84164" lon="9.18929">
        <ele>1782.04</ele>
        <time>2015-07-26T09:34:02Z</time>
      </trkpt>
      <trkpt lat="41.84169" lon="9.18905">
        <ele>1775.47</ele>
        <time>2015-07-26T09:42:30Z</time>
      </trkpt>
      <trkpt lat="41.84187" lon="9.18898">
        <ele>1772.47</ele>
        <time>2015-07-26T09:43:28Z</time>
      </trkpt>
      <trkpt lat="41.84197" lon="9.18877">
        <ele>1769.54</ele>
        <time>2015-07-26T09:44:00Z</time>
      </trkpt>
      <trkpt lat="41.84212" lon="9.18862">
        <ele>1763.41</ele>
        <time>2015-07-26T09:44:30Z</time>
      </trkpt>
      <trkpt lat="41.84221" lon="9.18842">
        <ele>1760.81</ele>
        <time>2015-07-26T09:44:59Z</time>
      </trkpt>
      <trkpt lat="41.84228" lon="9.18818">
        <ele>1753.94</ele>
        <time>2015-07-26T09:45:53Z</time>
      </trkpt>
      <trkpt lat="41.84227" lon="9.18794">
        <ele>1747.66</ele>
        <time>2015-07-26T09:47:14Z</time>
      </trkpt>
      <trkpt lat="41.84237" lon="9.18774">
        <ele>1739.34</ele>
        <time>2015-07-26T09:47:58Z</time>
      </trkpt>
      <trkpt lat="41.8424" lon="9.1875">
        <ele>1731.47</ele>
        <time>2015-07-26T09:48:42Z</time>
      </trkpt>
      <trkpt lat="41.84251" lon="9.18731">
        <ele>1726.46</ele>
        <time>2015-07-26T09:49:23Z</time>
      </trkpt>
      <trkpt lat="41.84247" lon="9.18706">
        <ele>1727.44</ele>
        <time>2015-07-26T09:50:03Z</time>
      </trkpt>
      <trkpt lat="41.84256" lon="9.18684">
        <ele>1718.84</ele>
        <time>2015-07-26T09:51:03Z</time>
      </trkpt>
      <trkpt lat="41.84255" lon="9.18659">
        <ele>1710.06</ele>
        <time>2015-07-26T09:51:41Z</time>
      </trkpt>
      <trkpt lat="41.84252" lon="9.18635">
        <ele>1709.22</ele>
        <time>2015-07-26T09:52:31Z</time>
      </trkpt>
      <trkpt lat="41.84259" lon="9.18612">
        <ele>1711.22</ele>
        <time>2015-07-26T09:53:10Z</time>
      </trkpt>
      <trkpt lat="41.84268" lon="9.1859">
        <ele>1705.2</ele>
        <time>2015-07-26T09:53:34Z</time>
      </trkpt>
      <trkpt lat="41.84276" lon="9.18568">
        <ele>1702.03</ele>
        <time>2015-07-26T09:54:39Z</time>
      </trkpt>
      <trkpt lat="41.8429" lon="9.18553">
        <ele>1691.73</ele>
        <time>2015-07-26T09:56:13Z</time>
      </trkpt>
      <trkpt lat="41.84292" lon="9.18529">
        <ele>1672.75</ele>
        <time>2015-07-26T09:57:41Z</time>
      </trkpt>
      <trkpt lat="41.84304" lon="9.1851">
        <ele>1667.4</ele>
        <time>2015-07-26T09:59:22Z</time>
      </trkpt>
      <trkpt lat="41.84309" lon="9.18487">
        <ele>1667.4</ele>
        <time>2015-07-26T09:59:55Z</time>
      </trkpt>
      <trkpt lat="41.84326" lon="9.18475">
        <ele>1661.09</ele>
        <time>2015-07-26T10:00:58Z</time>
      </trkpt>
      <trkpt lat="41.84343" lon="9.18483">
        <ele>1655.35</ele>
        <time>2015-07-26T10:01:41Z</time>
      </trkpt>
      <trkpt lat="41.84361" lon="9.18482">
        <ele>1658.46</ele>
        <time>2015-07-26T10:02:34Z</time>
      </trkpt>
      <trkpt lat="41.84362" lon="9.18458">
        <ele>1652.63</ele>
        <time>2015-07-26T10:03:15Z</time>
      </trkpt>
      <trkpt lat="41.84366" lon="9.18434">
        <ele>1657.6</ele>
        <time>2015-07-26T10:03:54Z</time>
      </trkpt>
      <trkpt lat="41.84367" lon="9.18409">
        <ele>1656.64</ele>
        <time>2015-07-26T10:04:37Z</time>
      </trkpt>
      <trkpt lat="41.84373" lon="9.18385">
        <ele>1661.96</ele>
        <time>2015-07-26T10:05:12Z</time>
      </trkpt>
      <trkpt lat="41.84381" lon="9.18364">
        <ele>1661.47</ele>
        <time>2015-07-26T10:05:38Z</time>
      </trkpt>
      <trkpt lat="41.84399" lon="9.18361">
        <ele>1656.35</ele>
        <time>2015-07-26T10:06:09Z</time>
      </trkpt>
      <trkpt lat="41.84418" lon="9.1836">
        <ele>1655.14</ele>
        <time>2015-07-26T10:06:35Z</time>
      </trkpt>
      <trkpt lat="41.84435" lon="9.1837">
        <ele>1652.93</ele>
        <time>2015-07-26T10:07:08Z</time>
      </trkpt>
      <trkpt lat="41.84451" lon="9.1838">
        <ele>1650.98</ele>
        <time>2015-07-26T10:07:40Z</time>
      </trkpt>
      <trkpt lat="41.84469" lon="9.18385">
        <ele>1650.85</ele>
        <time>2015-07-26T10:08:05Z</time>
      </trkpt>
      <trkpt lat="41.84487" lon="9.18391">
        <ele>1642.58</ele>
        <time>2015-07-26T10:08:42Z</time>
      </trkpt>
      <trkpt lat="41.84502" lon="9.18378">
        <ele>1637.27</ele>
        <time>2015-07-26T10:09:11Z</time>
      </trkpt>
      <trkpt lat="41.8452" lon="9.18374">
        <ele>1641.08</ele>
        <time>2015-07-26T10:09:58Z</time>
      </trkpt>
      <trkpt lat="41.84538" lon="9.18381">
        <ele>1634.88</ele>
        <time>2015-07-26T10:10:22Z</time>
      </trkpt>
      <trkpt lat="41.84556" lon="9.18376">
        <ele>1630.14</ele>
        <time>2015-07-26T10:10:42Z</time>
      </trkpt>
      <trkpt lat="41.84569" lon="9.18357">
        <ele>1636.25</ele>
        <time>2015-07-26T10:10:58Z</time>
      </trkpt>
      <trkpt lat="41.84575" lon="9.18334">
        <ele>1629.02</ele>
        <time>2015-07-26T10:11:37Z</time>
      </trkpt>
      <trkpt lat="41.84578" lon="9.1831">
        <ele>1628.29</ele>
        <time>2015-07-26T10:12:01Z</time>
      </trkpt>
      <trkpt lat="41.84589" lon="9.1829">
        <ele>1622.49</ele>
        <time>2015-07-26T10:12:25Z</time>
      </trkpt>
      <trkpt lat="41.84584" lon="9.18314">
        <ele>1630.52</ele>
        <time>2015-07-26T10:14:02Z</time>
      </trkpt>
      <trkpt lat="41.8458" lon="9.18338">
        <ele>1625.6</ele>
        <time>2015-07-26T10:14:30Z</time>
      </trkpt>
      <trkpt lat="41.84574" lon="9.18361">
        <ele>1629.9</ele>
        <time>2015-07-26T10:14:51Z</time>
      </trkpt>
      <trkpt lat="41.84587" lon="9.18378">
        <ele>1626.94</ele>
        <time>2015-07-26T10:15:21Z</time>
      </trkpt>
      <trkpt lat="41.84604" lon="9.18385">
        <ele>1625.89</ele>
        <time>2015-07-26T10:15:43Z</time>
      </trkpt>
      <trkpt lat="41.84621" lon="9.18398">
        <ele>1624.82</ele>
        <time>2015-07-26T10:16:16Z</time>
      </trkpt>
      <trkpt lat="41.84639" lon="9.18404">
        <ele>1623.53</ele>
        <time>2015-07-26T10:16:51Z</time>
      </trkpt>
      <trkpt lat="41.84654" lon="9.18418">
        <ele>1621.01</ele>
        <time>2015-07-26T10:17:16Z</time>
      </trkpt>
      <trkpt lat="41.84664" lon="9.18439">
        <ele>1611.5</ele>
        <time>2015-07-26T10:18:13Z</time>
      </trkpt>
      <trkpt lat="41.84679" lon="9.18452">
        <ele>1609.24</ele>
        <time>2015-07-26T10:19:07Z</time>
      </trkpt>
      <trkpt lat="41.84696" lon="9.18442">
        <ele>1603.66</ele>
        <time>2015-07-26T10:19:36Z</time>
      </trkpt>
      <trkpt lat="41.8471" lon="9.18425">
        <ele>1604.11</ele>
        <time>2015-07-26T10:20:12Z</time>
      </trkpt>
      <trkpt lat="41.84719" lon="9.18404">
        <ele>1601.46</ele>
        <time>2015-07-26T10:20:31Z</time>
      </trkpt>
      <trkpt lat="41.84737" lon="9.18401">
        <ele>1595.97</ele>
        <time>2015-07-26T10:21:15Z</time>
      </trkpt>
      <trkpt lat="41.84755" lon="9.18401">
        <ele>1593.09</ele>
        <time>2015-07-26T10:21:54Z</time>
      </trkpt>
      <trkpt lat="41.84773" lon="9.18396">
        <ele>1584.63</ele>
        <time>2015-07-26T10:22:17Z</time>
      </trkpt>
      <trkpt lat="41.84791" lon="9.184">
        <ele>1585.96</ele>
        <time>2015-07-26T10:22:58Z</time>
      </trkpt>
      <trkpt lat="41.84809" lon="9.18398">
        <ele>1583.53</ele>
        <time>2015-07-26T10:23:32Z</time>
      </trkpt>
      <trkpt lat="41.84827" lon="9.18396">
        <ele>1579.18</ele>
        <time>2015-07-26T10:23:47Z</time>
      </trkpt>
      <trkpt lat="41.84846" lon="9.18396">
        <ele>1579.13</ele>
        <time>2015-07-26T10:24:03Z</time>
      </trkpt>
      <trkpt lat="41.84864" lon="9.18397">
        <ele>1578.26</ele>
        <time>2015-07-26T10:24:19Z</time>
      </trkpt>
      <trkpt lat="41.8488" lon="9.18385">
        <ele>1576.92</ele>
        <time>2015-07-26T10:24:58Z</time>
      </trkpt>
      <trkpt lat="41.84895" lon="9.18372">
        <ele>1574.57</ele>
        <time>2015-07-26T10:25:19Z</time>
      </trkpt>
      <trkpt lat="41.84913" lon="9.18364">
        <ele>1570.16</ele>
        <time>2015-07-26T10:25:38Z</time>
      </trkpt>
      <trkpt lat="41.84929" lon="9.18354">
        <ele>1574.76</ele>
        <time>2015-07-26T10:25:56Z</time>
      </trkpt>
      <trkpt lat="41.84943" lon="9.18338">
        <ele>1573.35</ele>
        <time>2015-07-26T10:26:10Z</time>
      </trkpt>
      <trkpt lat="41.84959" lon="9.18327">
        <ele>1570.08</ele>
        <time>2015-07-26T10:26:32Z</time>
      </trkpt>
      <trkpt lat="41.84978" lon="9.18327">
        <ele>1571.06</ele>
        <time>2015-07-26T10:27:01Z</time>
      </trkpt>
      <trkpt lat="41.84996" lon="9.18328">
        <ele>1571.53</ele>
        <time>2015-07-26T10:27:15Z</time>
      </trkpt>
      <trkpt lat="41.85014" lon="9.18334">
        <ele>1572.37</ele>
        <time>2015-07-26T10:27:35Z</time>
      </trkpt>
      <trkpt lat="41.8503" lon="9.18346">
        <ele>1572.52</ele>
        <time>2015-07-26T10:28:11Z</time>
      </trkpt>
      <trkpt lat="41.85048" lon="9.18357">
        <ele>1567.02</ele>
        <time>2015-07-26T10:28:45Z</time>
      </trkpt>
      <trkpt lat="41.85064" lon="9.18368">
        <ele>1564.91</ele>
        <time>2015-07-26T10:29:06Z</time>
      </trkpt>
      <trkpt lat="41.85079" lon="9.18382">
        <ele>1563.66</ele>
        <time>2015-07-26T10:29:29Z</time>
      </trkpt>
      <trkpt lat="41.85098" lon="9.18383">
        <ele>1566.65</ele>
        <time>2015-07-26T10:29:51Z</time>
      </trkpt>
      <trkpt lat="41.85116" lon="9.18379">
        <ele>1572.17</ele>
        <time>2015-07-26T10:30:17Z</time>
      </trkpt>
      <trkpt lat="41.85134" lon="9.18384">
        <ele>1574.94</ele>
        <time>2015-07-26T10:30:48Z</time>
      </trkpt>
      <trkpt lat="41.85153" lon="9.18385">
        <ele>1570.54</ele>
        <time>2015-07-26T10:31:14Z</time>
      </trkpt>
      <trkpt lat="41.85167" lon="9.1837">
        <ele>1566.28</ele>
        <time>2015-07-26T10:31:41Z</time>
      </trkpt>
      <trkpt lat="41.85185" lon="9.18367">
        <ele>1576.4</ele>
        <time>2015-07-26T10:32:06Z</time>
      </trkpt>
      <trkpt lat="41.85202" lon="9.18376">
        <ele>1571.62</ele>
        <time>2015-07-26T10:32:40Z</time>
      </trkpt>
      <trkpt lat="41.85221" lon="9.18378">
        <ele>1563.5</ele>
        <time>2015-07-26T10:33:15Z</time>
      </trkpt>
      <trkpt lat="41.85235" lon="9.18395">
        <ele>1562.5</ele>
        <time>2015-07-26T10:33:44Z</time>
      </trkpt>
      <trkpt lat="41.85253" lon="9.18401">
        <ele>1561.49</ele>
        <time>2015-07-26T10:34:08Z</time>
      </trkpt>
      <trkpt lat="41.85271" lon="9.18405">
        <ele>1552.54</ele>
        <time>2015-07-26T10:34:32Z</time>
      </trkpt>
      <trkpt lat="41.85289" lon="9.18402">
        <ele>1544.15</ele>
        <time>2015-07-26T10:34:53Z</time>
      </trkpt>
      <trkpt lat="41.85304" lon="9.18415">
        <ele>1542.55</ele>
        <time>2015-07-26T10:35:30Z</time>
      </trkpt>
      <trkpt lat="41.8532" lon="9.18427">
        <ele>1542.92</ele>
        <time>2015-07-26T10:35:54Z</time>
      </trkpt>
      <trkpt lat="41.85322" lon="9.18452">
        <ele>1538.97</ele>
        <time>2015-07-26T10:36:49Z</time>
      </trkpt>
      <trkpt lat="41.85332" lon="9.18472">
        <ele>1539.22</ele>
        <time>2015-07-26T10:37:22Z</time>
      </trkpt>
      <trkpt lat="41.85346" lon="9.18488">
        <ele>1533.19</ele>
        <time>2015-07-26T10:37:58Z</time>
      </trkpt>
      <trkpt lat="41.85363" lon="9.185">
        <ele>1529.47</ele>
        <time>2015-07-26T10:38:44Z</time>
      </trkpt>
      <trkpt lat="41.8538" lon="9.1851">
        <ele>1518.12</ele>
        <time>2015-07-26T10:39:01Z</time>
      </trkpt>
      <trkpt lat="41.85381" lon="9.18534">
        <ele>1517.47</ele>
        <time>2015-07-26T10:39:55Z</time>
      </trkpt>
      <trkpt lat="41.85399" lon="9.18528">
        <ele>1505.56</ele>
        <time>2015-07-26T12:14:27Z</time>
      </trkpt>
      <trkpt lat="41.85417" lon="9.18526">
        <ele>1505.58</ele>
        <time>2015-07-26T12:14:55Z</time>
      </trkpt>
      <trkpt lat="41.85425" lon="9.18504">
        <ele>1507.87</ele>
        <time>2015-07-26T12:15:37Z</time>
      </trkpt>
      <trkpt lat="41.85442" lon="9.18494">
        <ele>1509.12</ele>
        <time>2015-07-26T12:17:01Z</time>
      </trkpt>
      <trkpt lat="41.85458" lon="9.18481">
        <ele>1507.92</ele>
        <time>2015-07-26T12:17:16Z</time>
      </trkpt>
      <trkpt lat="41.85476" lon="9.18477">
        <ele>1510.45</ele>
        <time>2015-07-26T12:17:39Z</time>
      </trkpt>
      <trkpt lat="41.85493" lon="9.18487">
        <ele>1507.59</ele>
        <time>2015-07-26T12:18:18Z</time>
      </trkpt>
      <trkpt lat="41.85511" lon="9.18495">
        <ele>1502.12</ele>
        <time>2015-07-26T12:18:48Z</time>
      </trkpt>
      <trkpt lat="41.85529" lon="9.18497">
        <ele>1504.87</ele>
        <time>2015-07-26T12:19:10Z</time>
      </trkpt>
      <trkpt lat="41.85548" lon="9.18493">
        <ele>1502.83</ele>
        <time>2015-07-26T12:19:51Z</time>
      </trkpt>
      <trkpt lat="41.85566" lon="9.18487">
        <ele>1499.6</ele>
        <time>2015-07-26T12:20:24Z</time>
      </trkpt>
      <trkpt lat="41.85584" lon="9.18479">
        <ele>1501.3</ele>
        <time>2015-07-26T12:20:47Z</time>
      </trkpt>
      <trkpt lat="41.85602" lon="9.18471">
        <ele>1497.67</ele>
        <time>2015-07-26T12:21:18Z</time>
      </trkpt>
      <trkpt lat="41.8562" lon="9.18474">
        <ele>1488.65</ele>
        <time>2015-07-26T12:22:41Z</time>
      </trkpt>
      <trkpt lat="41.85636" lon="9.18462">
        <ele>1487.21</ele>
        <time>2015-07-26T12:22:57Z</time>
      </trkpt>
      <trkpt lat="41.85654" lon="9.18463">
        <ele>1482.91</ele>
        <time>2015-07-26T12:23:33Z</time>
      </trkpt>
      <trkpt lat="41.85671" lon="9.18453">
        <ele>1486.3</ele>
        <time>2015-07-26T12:23:57Z</time>
      </trkpt>
      <trkpt lat="41.85689" lon="9.18448">
        <ele>1486.28</ele>
        <time>2015-07-26T12:24:19Z</time>
      </trkpt>
      <trkpt lat="41.85707" lon="9.18451">
        <ele>1480.71</ele>
        <time>2015-07-26T12:24:41Z</time>
      </trkpt>
      <trkpt lat="41.85726" lon="9.18457">
        <ele>1483.23</ele>
        <time>2015-07-26T12:25:08Z</time>
      </trkpt>
      <trkpt lat="41.85744" lon="9.18462">
        <ele>1488.08</ele>
        <time>2015-07-26T12:25:27Z</time>
      </trkpt>
      <trkpt lat="41.85763" lon="9.18461">
        <ele>1483.59</ele>
        <time>2015-07-26T12:26:00Z</time>
      </trkpt>
      <trkpt lat="41.8578" lon="9.18453">
        <ele>1481.29</ele>
        <time>2015-07-26T12:26:30Z</time>
      </trkpt>
      <trkpt lat="41.85796" lon="9.18441">
        <ele>1474.26</ele>
        <time>2015-07-26T12:26:54Z</time>
      </trkpt>
      <trkpt lat="41.85814" lon="9.18438">
        <ele>1479.74</ele>
        <time>2015-07-26T12:27:12Z</time>
      </trkpt>
      <trkpt lat="41.85832" lon="9.18433">
        <ele>1479.7</ele>
        <time>2015-07-26T12:28:45Z</time>
      </trkpt>
      <trkpt lat="41.85849" lon="9.18423">
        <ele>1470.24</ele>
        <time>2015-07-26T12:29:22Z</time>
      </trkpt>
      <trkpt lat="41.85865" lon="9.18412">
        <ele>1472.91</ele>
        <time>2015-07-26T12:29:37Z</time>
      </trkpt>
      <trkpt lat="41.85881" lon="9.184">
        <ele>1473.81</ele>
        <time>2015-07-26T12:29:54Z</time>
      </trkpt>
      <trkpt lat="41.85899" lon="9.18396">
        <ele>1473.59</ele>
        <time>2015-07-26T12:30:19Z</time>
      </trkpt>
      <trkpt lat="41.85917" lon="9.18391">
        <ele>1478.13</ele>
        <time>2015-07-26T12:30:43Z</time>
      </trkpt>
      <trkpt lat="41.85935" lon="9.18393">
        <ele>1476.07</ele>
        <time>2015-07-26T12:31:15Z</time>
      </trkpt>
      <trkpt lat="41.85952" lon="9.18386">
        <ele>1475.56</ele>
        <time>2015-07-26T12:31:43Z</time>
      </trkpt>
      <trkpt lat="41.8597" lon="9.18375">
        <ele>1474.31</ele>
        <time>2015-07-26T12:31:59Z</time>
      </trkpt>
      <trkpt lat="41.85987" lon="9.18367">
        <ele>1471.38</ele>
        <time>2015-07-26T12:32:20Z</time>
      </trkpt>
      <trkpt lat="41.86004" lon="9.18363">
        <ele>1470.56</ele>
        <time>2015-07-26T12:32:40Z</time>
      </trkpt>
      <trkpt lat="41.86011" lon="9.18386">
        <ele>1466.94</ele>
        <time>2015-07-26T12:33:10Z</time>
      </trkpt>
      <trkpt lat="41.86018" lon="9.18408">
        <ele>1471.03</ele>
        <time>2015-07-26T12:35:26Z</time>
      </trkpt>
      <trkpt lat="41.86035" lon="9.18417">
        <ele>1471.25</ele>
        <time>2015-07-26T12:35:53Z</time>
      </trkpt>
      <trkpt lat="41.86054" lon="9.18416">
        <ele>1472.21</ele>
        <time>2015-07-26T12:36:15Z</time>
      </trkpt>
      <trkpt lat="41.86072" lon="9.18417">
        <ele>1473.65</ele>
        <time>2015-07-26T12:36:40Z</time>
      </trkpt>
      <trkpt lat="41.86089" lon="9.18408">
        <ele>1472.33</ele>
        <time>2015-07-26T12:36:57Z</time>
      </trkpt>
      <trkpt lat="41.86107" lon="9.18404">
        <ele>1471.46</ele>
        <time>2015-07-26T12:37:15Z</time>
      </trkpt>
      <trkpt lat="41.86125" lon="9.18407">
        <ele>1474.67</ele>
        <time>2015-07-26T12:37:35Z</time>
      </trkpt>
      <trkpt lat="41.86144" lon="9.18405">
        <ele>1468.61</ele>
        <time>2015-07-26T12:37:54Z</time>
      </trkpt>
      <trkpt lat="41.86162" lon="9.18405">
        <ele>1467.82</ele>
        <time>2015-07-26T12:38:11Z</time>
      </trkpt>
      <trkpt lat="41.8618" lon="9.18398">
        <ele>1464.94</ele>
        <time>2015-07-26T12:38:35Z</time>
      </trkpt>
      <trkpt lat="41.86198" lon="9.18397">
        <ele>1465.83</ele>
        <time>2015-07-26T12:38:55Z</time>
      </trkpt>
      <trkpt lat="41.86216" lon="9.18389">
        <ele>1465.22</ele>
        <time>2015-07-26T12:39:19Z</time>
      </trkpt>
      <trkpt lat="41.86234" lon="9.18384">
        <ele>1471.42</ele>
        <time>2015-07-26T12:39:40Z</time>
      </trkpt>
      <trkpt lat="41.86251" lon="9.18392">
        <ele>1474.92</ele>
        <time>2015-07-26T12:40:06Z</time>
      </trkpt>
      <trkpt lat="41.86267" lon="9.18403">
        <ele>1472.59</ele>
        <time>2015-07-26T12:40:40Z</time>
      </trkpt>
      <trkpt lat="41.86286" lon="9.18406">
        <ele>1472.51</ele>
        <time>2015-07-26T12:40:58Z</time>
      </trkpt>
      <trkpt lat="41.86304" lon="9.18409">
        <ele>1468.09</ele>
        <time>2015-07-26T12:41:17Z</time>
      </trkpt>
      <trkpt lat="41.86322" lon="9.18411">
        <ele>1463.12</ele>
        <time>2015-07-26T12:41:38Z</time>
      </trkpt>
      <trkpt lat="41.86341" lon="9.18412">
        <ele>1462.15</ele>
        <time>2015-07-26T12:41:53Z</time>
      </trkpt>
      <trkpt lat="41.86359" lon="9.18414">
        <ele>1468.02</ele>
        <time>2015-07-26T12:42:08Z</time>
      </trkpt>
      <trkpt lat="41.86378" lon="9.18414">
        <ele>1466.02</ele>
        <time>2015-07-26T12:42:30Z</time>
      </trkpt>
      <trkpt lat="41.86396" lon="9.18417">
        <ele>1466.44</ele>
        <time>2015-07-26T12:42:49Z</time>
      </trkpt>
      <trkpt lat="41.86415" lon="9.18419">
        <ele>1465.17</ele>
        <time>2015-07-26T12:43:07Z</time>
      </trkpt>
      <trkpt lat="41.86432" lon="9.1841">
        <ele>1460.01</ele>
        <time>2015-07-26T12:43:30Z</time>
      </trkpt>
      <trkpt lat="41.8645" lon="9.18406">
        <ele>1464.37</ele>
        <time>2015-07-26T12:43:54Z</time>
      </trkpt>
      <trkpt lat="41.86468" lon="9.18409">
        <ele>1457.97</ele>
        <time>2015-07-26T12:44:15Z</time>
      </trkpt>
      <trkpt lat="41.86486" lon="9.18414">
        <ele>1463.94</ele>
        <time>2015-07-26T12:44:38Z</time>
      </trkpt>
      <trkpt lat="41.86505" lon="9.1842">
        <ele>1461.81</ele>
        <time>2015-07-26T12:44:51Z</time>
      </trkpt>
      <trkpt lat="41.86523" lon="9.18424">
        <ele>1461.85</ele>
        <time>2015-07-26T12:45:07Z</time>
      </trkpt>
      <trkpt lat="41.86541" lon="9.18428">
        <ele>1458.46</ele>
        <time>2015-07-26T12:45:27Z</time>
      </trkpt>
      <trkpt lat="41.86559" lon="9.18432">
        <ele>1456.28</ele>
        <time>2015-07-26T12:45:48Z</time>
      </trkpt>
      <trkpt lat="41.86577" lon="9.18437">
        <ele>1455.23</ele>
        <time>2015-07-26T12:46:08Z</time>
      </trkpt>
      <trkpt lat="41.86595" lon="9.18438">
        <ele>1461.09</ele>
        <time>2015-07-26T12:46:29Z</time>
      </trkpt>
      <trkpt lat="41.86611" lon="9.1845">
        <ele>1463.47</ele>
        <time>2015-07-26T12:46:49Z</time>
      </trkpt>
      <trkpt lat="41.86627" lon="9.18463">
        <ele>1461.48</ele>
        <time>2015-07-26T12:47:13Z</time>
      </trkpt>
      <trkpt lat="41.86642" lon="9.18477">
        <ele>1455.63</ele>
        <time>2015-07-26T12:47:39Z</time>
      </trkpt>
      <trkpt lat="41.86659" lon="9.18486">
        <ele>1455.52</ele>
        <time>2015-07-26T12:48:00Z</time>
      </trkpt>
      <trkpt lat="41.86677" lon="9.18494">
        <ele>1450.61</ele>
        <time>2015-07-26T12:48:29Z</time>
      </trkpt>
      <trkpt lat="41.86692" lon="9.18507">
        <ele>1452.26</ele>
        <time>2015-07-26T12:49:03Z</time>
      </trkpt>
      <trkpt lat="41.86709" lon="9.18518">
        <ele>1449.18</ele>
        <time>2015-07-26T12:49:23Z</time>
      </trkpt>
      <trkpt lat="41.86727" lon="9.18521">
        <ele>1444.83</ele>
        <time>2015-07-26T12:49:55Z</time>
      </trkpt>
      <trkpt lat="41.86745" lon="9.18522">
        <ele>1443.98</ele>
        <time>2015-07-26T12:50:14Z</time>
      </trkpt>
      <trkpt lat="41.86763" lon="9.18527">
        <ele>1450.85</ele>
        <time>2015-07-26T12:50:54Z</time>
      </trkpt>
      <trkpt lat="41.86782" lon="9.18531">
        <ele>1455.47</ele>
        <time>2015-07-26T12:51:11Z</time>
      </trkpt>
      <trkpt lat="41.868" lon="9.18537">
        <ele>1456.19</ele>
        <time>2015-07-26T12:51:27Z</time>
      </trkpt>
      <trkpt lat="41.86819" lon="9.18541">
        <ele>1456.3</ele>
        <time>2015-07-26T12:51:43Z</time>
      </trkpt>
      <trkpt lat="41.86837" lon="9.18549">
        <ele>1454.34</ele>
        <time>2015-07-26T12:52:05Z</time>
      </trkpt>
      <trkpt lat="41.86855" lon="9.18553">
        <ele>1447.78</ele>
        <time>2015-07-26T12:53:08Z</time>
      </trkpt>
      <trkpt lat="41.86873" lon="9.18559">
        <ele>1448.89</ele>
        <time>2015-07-26T12:53:22Z</time>
      </trkpt>
      <trkpt lat="41.8689" lon="9.18569">
        <ele>1446.46</ele>
        <time>2015-07-26T12:53:42Z</time>
      </trkpt>
      <trkpt lat="41.86901" lon="9.18588">
        <ele>1445.46</ele>
        <time>2015-07-26T12:54:05Z</time>
      </trkpt>
      <trkpt lat="41.86917" lon="9.186">
        <ele>1454.39</ele>
        <time>2015-07-26T12:54:23Z</time>
      </trkpt>
      <trkpt lat="41.86933" lon="9.18613">
        <ele>1458.13</ele>
        <time>2015-07-26T12:54:41Z</time>
      </trkpt>
      <trkpt lat="41.86946" lon="9.1863">
        <ele>1452.59</ele>
        <time>2015-07-26T12:55:11Z</time>
      </trkpt>
      <trkpt lat="41.86963" lon="9.1864">
        <ele>1450.99</ele>
        <time>2015-07-26T12:55:34Z</time>
      </trkpt>
      <trkpt lat="41.86981" lon="9.18648">
        <ele>1457.62</ele>
        <time>2015-07-26T12:56:38Z</time>
      </trkpt>
      <trkpt lat="41.86997" lon="9.18658">
        <ele>1452.83</ele>
        <time>2015-07-26T12:56:56Z</time>
      </trkpt>
      <trkpt lat="41.87013" lon="9.18671">
        <ele>1443.83</ele>
        <time>2015-07-26T12:57:22Z</time>
      </trkpt>
      <trkpt lat="41.87029" lon="9.18683">
        <ele>1444.94</ele>
        <time>2015-07-26T12:57:58Z</time>
      </trkpt>
      <trkpt lat="41.87045" lon="9.18695">
        <ele>1442.47</ele>
        <time>2015-07-26T12:58:21Z</time>
      </trkpt>
      <trkpt lat="41.87063" lon="9.18698">
        <ele>1440.96</ele>
        <time>2015-07-26T12:58:40Z</time>
      </trkpt>
      <trkpt lat="41.87082" lon="9.187">
        <ele>1439.56</ele>
        <time>2015-07-26T12:59:07Z</time>
      </trkpt>
      <trkpt lat="41.871" lon="9.18702">
        <ele>1444.5</ele>
        <time>2015-07-26T12:59:34Z</time>
      </trkpt>
      <trkpt lat="41.87116" lon="9.1869">
        <ele>1444.81</ele>
        <time>2015-07-26T12:59:56Z</time>
      </trkpt>
      <trkpt lat="41.87125" lon="9.18668">
        <ele>1444.03</ele>
        <time>2015-07-26T13:02:48Z</time>
      </trkpt>
      <trkpt lat="41.87113" lon="9.18649">
        <ele>1440.37</ele>
        <time>2015-07-26T13:04:27Z</time>
      </trkpt>
      <trkpt lat="41.87123" lon="9.18629">
        <ele>1430.96</ele>
        <time>2015-07-26T13:09:35Z</time>
      </trkpt>
      <trkpt lat="41.8714" lon="9.18618">
        <ele>1430.96</ele>
        <time>2015-07-26T13:09:57Z</time>
      </trkpt>
      <trkpt lat="41.87156" lon="9.18606">
        <ele>1431.96</ele>
        <time>2015-07-26T13:10:13Z</time>
      </trkpt>
      <trkpt lat="41.87173" lon="9.18597">
        <ele>1437.4</ele>
        <time>2015-07-26T13:10:33Z</time>
      </trkpt>
      <trkpt lat="41.87187" lon="9.18583">
        <ele>1442.11</ele>
        <time>2015-07-26T13:11:01Z</time>
      </trkpt>
      <trkpt lat="41.87194" lon="9.1856">
        <ele>1451.99</ele>
        <time>2015-07-26T13:11:29Z</time>
      </trkpt>
      <trkpt lat="41.87203" lon="9.18539">
        <ele>1442.51</ele>
        <time>2015-07-26T13:11:52Z</time>
      </trkpt>
      <trkpt lat="41.87206" lon="9.18515">
        <ele>1449.28</ele>
        <time>2015-07-26T13:12:16Z</time>
      </trkpt>
      <trkpt lat="41.87212" lon="9.18492">
        <ele>1442.82</ele>
        <time>2015-07-26T13:12:39Z</time>
      </trkpt>
      <trkpt lat="41.87216" lon="9.18467">
        <ele>1441.23</ele>
        <time>2015-07-26T13:12:58Z</time>
      </trkpt>
      <trkpt lat="41.87231" lon="9.18454">
        <ele>1444.8</ele>
        <time>2015-07-26T13:13:15Z</time>
      </trkpt>
      <trkpt lat="41.87247" lon="9.18441">
        <ele>1448.36</ele>
        <time>2015-07-26T13:14:50Z</time>
      </trkpt>
      <trkpt lat="41.87265" lon="9.18439">
        <ele>1447.89</ele>
        <time>2015-07-26T13:15:07Z</time>
      </trkpt>
      <trkpt lat="41.87283" lon="9.18437">
        <ele>1449.31</ele>
        <time>2015-07-26T13:15:27Z</time>
      </trkpt>
      <trkpt lat="41.873" lon="9.1843">
        <ele>1455.07</ele>
        <time>2015-07-26T13:15:48Z</time>
      </trkpt>
      <trkpt lat="41.87318" lon="9.18428">
        <ele>1454.8</ele>
        <time>2015-07-26T13:16:08Z</time>
      </trkpt>
      <trkpt lat="41.87337" lon="9.18427">
        <ele>1454.5</ele>
        <time>2015-07-26T13:16:27Z</time>
      </trkpt>
      <trkpt lat="41.87355" lon="9.18422">
        <ele>1455.7</ele>
        <time>2015-07-26T13:16:47Z</time>
      </trkpt>
      <trkpt lat="41.87373" lon="9.18417">
        <ele>1453.59</ele>
        <time>2015-07-26T13:17:08Z</time>
      </trkpt>
      <trkpt lat="41.8739" lon="9.18407">
        <ele>1453.95</ele>
        <time>2015-07-26T13:17:39Z</time>
      </trkpt>
      <trkpt lat="41.87404" lon="9.18393">
        <ele>1466.42</ele>
        <time>2015-07-26T13:18:22Z</time>
      </trkpt>
      <trkpt lat="41.87419" lon="9.18375">
        <ele>1466.51</ele>
        <time>2015-07-26T13:18:48Z</time>
      </trkpt>
      <trkpt lat="41.87433" lon="9.1836">
        <ele>1467.37</ele>
        <time>2015-07-26T13:19:08Z</time>
      </trkpt>
      <trkpt lat="41.87446" lon="9.18342">
        <ele>1468.99</ele>
        <time>2015-07-26T13:19:30Z</time>
      </trkpt>
      <trkpt lat="41.87459" lon="9.18325">
        <ele>1468.36</ele>
        <time>2015-07-26T13:19:49Z</time>
      </trkpt>
      <trkpt lat="41.87459" lon="9.18299">
        <ele>1469.43</ele>
        <time>2015-07-26T13:20:18Z</time>
      </trkpt>
      <trkpt lat="41.87459" lon="9.18275">
        <ele>1472.21</ele>
        <time>2015-07-26T13:20:33Z</time>
      </trkpt>
      <trkpt lat="41.87467" lon="9.18253">
        <ele>1471.9</ele>
        <time>2015-07-26T13:20:54Z</time>
      </trkpt>
      <trkpt lat="41.87477" lon="9.18231">
        <ele>1474.31</ele>
        <time>2015-07-26T13:21:17Z</time>
      </trkpt>
      <trkpt lat="41.87478" lon="9.18206">
        <ele>1475.53</ele>
        <time>2015-07-26T13:21:35Z</time>
      </trkpt>
      <trkpt lat="41.87474" lon="9.18182">
        <ele>1481.37</ele>
        <time>2015-07-26T13:21:52Z</time>
      </trkpt>
      <trkpt lat="41.87463" lon="9.18161">
        <ele>1480.97</ele>
        <time>2015-07-26T13:22:17Z</time>
      </trkpt>
      <trkpt lat="41.87455" lon="9.18138">
        <ele>1473.15</ele>
        <time>2015-07-26T13:22:37Z</time>
      </trkpt>
      <trkpt lat="41.87445" lon="9.18117">
        <ele>1472.44</ele>
        <time>2015-07-26T13:22:54Z</time>
      </trkpt>
      <trkpt lat="41.87434" lon="9.18097">
        <ele>1471.14</ele>
        <time>2015-07-26T13:23:16Z</time>
      </trkpt>
      <trkpt lat="41.87421" lon="9.18081">
        <ele>1475.23</ele>
        <time>2015-07-26T13:23:35Z</time>
      </trkpt>
      <trkpt lat="41.87405" lon="9.18067">
        <ele>1482.41</ele>
        <time>2015-07-26T13:23:56Z</time>
      </trkpt>
      <trkpt lat="41.87393" lon="9.18049">
        <ele>1481.16</ele>
        <time>2015-07-26T13:24:13Z</time>
      </trkpt>
      <trkpt lat="41.87382" lon="9.18029">
        <ele>1482.49</ele>
        <time>2015-07-26T13:24:31Z</time>
      </trkpt>
      <trkpt lat="41.87367" lon="9.18014">
        <ele>1484.05</ele>
        <time>2015-07-26T13:24:50Z</time>
      </trkpt>
      <trkpt lat="41.87349" lon="9.18005">
        <ele>1481.79</ele>
        <time>2015-07-26T13:25:11Z</time>
      </trkpt>
      <trkpt lat="41.87341" lon="9.17984">
        <ele>1481.97</ele>
        <time>2015-07-26T13:25:29Z</time>
      </trkpt>
      <trkpt lat="41.87331" lon="9.17962">
        <ele>1485.76</ele>
        <time>2015-07-26T13:25:49Z</time>
      </trkpt>
      <trkpt lat="41.8732" lon="9.17943">
        <ele>1480.63</ele>
        <time>2015-07-26T13:26:05Z</time>
      </trkpt>
      <trkpt lat="41.87331" lon="9.17924">
        <ele>1478.5</ele>
        <time>2015-07-26T13:26:29Z</time>
      </trkpt>
      <trkpt lat="41.87327" lon="9.179">
        <ele>1481.58</ele>
        <time>2015-07-26T13:26:52Z</time>
      </trkpt>
      <trkpt lat="41.87313" lon="9.17884">
        <ele>1483.31</ele>
        <time>2015-07-26T13:27:11Z</time>
      </trkpt>
      <trkpt lat="41.87297" lon="9.1787">
        <ele>1482.06</ele>
        <time>2015-07-26T13:27:27Z</time>
      </trkpt>
      <trkpt lat="41.87286" lon="9.1785">
        <ele>1479.28</ele>
        <time>2015-07-26T13:27:44Z</time>
      </trkpt>
      <trkpt lat="41.87279" lon="9.17827">
        <ele>1479.92</ele>
        <time>2015-07-26T13:28:03Z</time>
      </trkpt>
      <trkpt lat="41.87285" lon="9.17804">
        <ele>1475.97</ele>
        <time>2015-07-26T13:31:45Z</time>
      </trkpt>
      <trkpt lat="41.87267" lon="9.17797">
        <ele>1478.26</ele>
        <time>2015-07-26T13:35:05Z</time>
      </trkpt>
      <trkpt lat="41.87256" lon="9.17779">
        <ele>1478.35</ele>
        <time>2015-07-26T13:35:31Z</time>
      </trkpt>
      <trkpt lat="41.87237" lon="9.1778">
        <ele>1479.14</ele>
        <time>2015-07-26T13:35:55Z</time>
      </trkpt>
      <trkpt lat="41.87219" lon="9.17781">
        <ele>1473.9</ele>
        <time>2015-07-26T13:36:38Z</time>
      </trkpt>
      <trkpt lat="41.87201" lon="9.17776">
        <ele>1482.43</ele>
        <time>2015-07-26T13:36:53Z</time>
      </trkpt>
      <trkpt lat="41.87183" lon="9.1777">
        <ele>1481.3</ele>
        <time>2015-07-26T13:37:24Z</time>
      </trkpt>
      <trkpt lat="41.87174" lon="9.17749">
        <ele>1480.26</ele>
        <time>2015-07-26T13:38:02Z</time>
      </trkpt>
      <trkpt lat="41.87167" lon="9.17726">
        <ele>1481.48</ele>
        <time>2015-07-26T13:38:24Z</time>
      </trkpt>
      <trkpt lat="41.87162" lon="9.17702">
        <ele>1482.72</ele>
        <time>2015-07-26T13:38:45Z</time>
      </trkpt>
      <trkpt lat="41.87159" lon="9.17677">
        <ele>1482.57</ele>
        <time>2015-07-26T13:39:14Z</time>
      </trkpt>
      <trkpt lat="41.87148" lon="9.17657">
        <ele>1488.14</ele>
        <time>2015-07-26T13:39:39Z</time>
      </trkpt>
      <trkpt lat="41.87156" lon="9.17635">
        <ele>1486.9</ele>
        <time>2015-07-26T13:40:19Z</time>
      </trkpt>
      <trkpt lat="41.87155" lon="9.17611">
        <ele>1489.93</ele>
        <time>2015-07-26T13:40:43Z</time>
      </trkpt>
      <trkpt lat="41.87145" lon="9.1759">
        <ele>1486.65</ele>
        <time>2015-07-26T13:41:04Z</time>
      </trkpt>
      <trkpt lat="41.87135" lon="9.17569">
        <ele>1485.04</ele>
        <time>2015-07-26T13:41:24Z</time>
      </trkpt>
      <trkpt lat="41.87125" lon="9.17549">
        <ele>1485.78</ele>
        <time>2015-07-26T13:41:53Z</time>
      </trkpt>
      <trkpt lat="41.87108" lon="9.17541">
        <ele>1483.71</ele>
        <time>2015-07-26T13:42:40Z</time>
      </trkpt>
      <trkpt lat="41.87092" lon="9.1753">
        <ele>1485.41</ele>
        <time>2015-07-26T13:43:08Z</time>
      </trkpt>
      <trkpt lat="41.87074" lon="9.17532">
        <ele>1490.87</ele>
        <time>2015-07-26T13:43:25Z</time>
      </trkpt>
      <trkpt lat="41.87055" lon="9.1753">
        <ele>1493.07</ele>
        <time>2015-07-26T13:43:48Z</time>
      </trkpt>
      <trkpt lat="41.87038" lon="9.17523">
        <ele>1493.31</ele>
        <time>2015-07-26T13:44:09Z</time>
      </trkpt>
      <trkpt lat="41.8702" lon="9.17517">
        <ele>1495.54</ele>
        <time>2015-07-26T13:44:29Z</time>
      </trkpt>
      <trkpt lat="41.87006" lon="9.17501">
        <ele>1494.93</ele>
        <time>2015-07-26T13:44:51Z</time>
      </trkpt>
      <trkpt lat="41.86989" lon="9.17492">
        <ele>1492.23</ele>
        <time>2015-07-26T13:45:11Z</time>
      </trkpt>
      <trkpt lat="41.86974" lon="9.17478">
        <ele>1493.92</ele>
        <time>2015-07-26T13:45:30Z</time>
      </trkpt>
      <trkpt lat="41.86956" lon="9.1747">
        <ele>1496.97</ele>
        <time>2015-07-26T13:45:51Z</time>
      </trkpt>
      <trkpt lat="41.8694" lon="9.17459">
        <ele>1494.94</ele>
        <time>2015-07-26T13:46:16Z</time>
      </trkpt>
      <trkpt lat="41.86921" lon="9.17455">
        <ele>1502.52</ele>
        <time>2015-07-26T13:46:36Z</time>
      </trkpt>
      <trkpt lat="41.86905" lon="9.17444">
        <ele>1497.77</ele>
        <time>2015-07-26T13:47:03Z</time>
      </trkpt>
      <trkpt lat="41.86889" lon="9.17431">
        <ele>1500.6</ele>
        <time>2015-07-26T13:47:25Z</time>
      </trkpt>
      <trkpt lat="41.86873" lon="9.17421">
        <ele>1504.54</ele>
        <time>2015-07-26T13:47:41Z</time>
      </trkpt>
      <trkpt lat="41.86856" lon="9.17411">
        <ele>1500.48</ele>
        <time>2015-07-26T13:48:02Z</time>
      </trkpt>
      <trkpt lat="41.8684" lon="9.17397">
        <ele>1498.59</ele>
        <time>2015-07-26T13:48:27Z</time>
      </trkpt>
      <trkpt lat="41.86826" lon="9.17383">
        <ele>1500.6</ele>
        <time>2015-07-26T13:48:51Z</time>
      </trkpt>
      <trkpt lat="41.86813" lon="9.17366">
        <ele>1498.07</ele>
        <time>2015-07-26T13:49:35Z</time>
      </trkpt>
      <trkpt lat="41.86796" lon="9.17356">
        <ele>1500.02</ele>
        <time>2015-07-26T13:50:22Z</time>
      </trkpt>
      <trkpt lat="41.86782" lon="9.17341">
        <ele>1501.39</ele>
        <time>2015-07-26T13:50:48Z</time>
      </trkpt>
      <trkpt lat="41.86764" lon="9.17336">
        <ele>1500.22</ele>
        <time>2015-07-26T13:51:11Z</time>
      </trkpt>
      <trkpt lat="41.86745" lon="9.17334">
        <ele>1501.45</ele>
        <time>2015-07-26T13:51:42Z</time>
      </trkpt>
      <trkpt lat="41.86727" lon="9.17333">
        <ele>1504.9</ele>
        <time>2015-07-26T13:52:07Z</time>
      </trkpt>
      <trkpt lat="41.86709" lon="9.1734">
        <ele>1507.96</ele>
        <time>2015-07-26T13:52:30Z</time>
      </trkpt>
      <trkpt lat="41.86691" lon="9.17344">
        <ele>1509.47</ele>
        <time>2015-07-26T13:52:52Z</time>
      </trkpt>
      <trkpt lat="41.86674" lon="9.17351">
        <ele>1508.11</ele>
        <time>2015-07-26T13:53:17Z</time>
      </trkpt>
      <trkpt lat="41.86658" lon="9.17337">
        <ele>1509.93</ele>
        <time>2015-07-26T13:53:56Z</time>
      </trkpt>
      <trkpt lat="41.86643" lon="9.17324">
        <ele>1513.9</ele>
        <time>2015-07-26T13:54:27Z</time>
      </trkpt>
      <trkpt lat="41.86628" lon="9.17311">
        <ele>1514.43</ele>
        <time>2015-07-26T13:54:51Z</time>
      </trkpt>
      <trkpt lat="41.86616" lon="9.17293">
        <ele>1518.96</ele>
        <time>2015-07-26T13:55:22Z</time>
      </trkpt>
      <trkpt lat="41.86597" lon="9.1729">
        <ele>1523.71</ele>
        <time>2015-07-26T13:55:48Z</time>
      </trkpt>
      <trkpt lat="41.86585" lon="9.17272">
        <ele>1526.18</ele>
        <time>2015-07-26T13:56:10Z</time>
      </trkpt>
      <trkpt lat="41.86572" lon="9.17254">
        <ele>1525.59</ele>
        <time>2015-07-26T13:56:34Z</time>
      </trkpt>
      <trkpt lat="41.86562" lon="9.17233">
        <ele>1532.25</ele>
        <time>2015-07-26T13:57:10Z</time>
      </trkpt>
      <trkpt lat="41.86547" lon="9.1722">
        <ele>1537.76</ele>
        <time>2015-07-26T13:57:37Z</time>
      </trkpt>
      <trkpt lat="41.86532" lon="9.17206">
        <ele>1538.29</ele>
        <time>2015-07-26T13:57:51Z</time>
      </trkpt>
      <trkpt lat="41.86517" lon="9.17192">
        <ele>1539.66</ele>
        <time>2015-07-26T13:58:08Z</time>
      </trkpt>
      <trkpt lat="41.86499" lon="9.17182">
        <ele>1540.03</ele>
        <time>2015-07-26T13:58:25Z</time>
      </trkpt>
      <trkpt lat="41.86482" lon="9.17171">
        <ele>1537.46</ele>
        <time>2015-07-26T13:58:45Z</time>
      </trkpt>
      <trkpt lat="41.86465" lon="9.1716">
        <ele>1536.67</ele>
        <time>2015-07-26T13:59:04Z</time>
      </trkpt>
      <trkpt lat="41.86449" lon="9.17149">
        <ele>1536.36</ele>
        <time>2015-07-26T13:59:22Z</time>
      </trkpt>
      <trkpt lat="41.86431" lon="9.1714">
        <ele>1535.6</ele>
        <time>2015-07-26T13:59:40Z</time>
      </trkpt>
      <trkpt lat="41.86416" lon="9.17127">
        <ele>1534.44</ele>
        <time>2015-07-26T13:59:57Z</time>
      </trkpt>
      <trkpt lat="41.86398" lon="9.17119">
        <ele>1534.59</ele>
        <time>2015-07-26T14:00:15Z</time>
      </trkpt>
      <trkpt lat="41.8638" lon="9.17114">
        <ele>1531.99</ele>
        <time>2015-07-26T14:00:32Z</time>
      </trkpt>
      <trkpt lat="41.86362" lon="9.17105">
        <ele>1528.22</ele>
        <time>2015-07-26T14:00:51Z</time>
      </trkpt>
      <trkpt lat="41.86344" lon="9.17099">
        <ele>1529.22</ele>
        <time>2015-07-26T14:01:07Z</time>
      </trkpt>
      <trkpt lat="41.86326" lon="9.171">
        <ele>1527.79</ele>
        <time>2015-07-26T14:01:24Z</time>
      </trkpt>
      <trkpt lat="41.86308" lon="9.17093">
        <ele>1528.37</ele>
        <time>2015-07-26T14:01:40Z</time>
      </trkpt>
      <trkpt lat="41.86291" lon="9.17083">
        <ele>1528.96</ele>
        <time>2015-07-26T14:01:59Z</time>
      </trkpt>
      <trkpt lat="41.86273" lon="9.17076">
        <ele>1531.49</ele>
        <time>2015-07-26T14:02:17Z</time>
      </trkpt>
      <trkpt lat="41.86254" lon="9.17073">
        <ele>1531.61</ele>
        <time>2015-07-26T14:02:35Z</time>
      </trkpt>
      <trkpt lat="41.86236" lon="9.17072">
        <ele>1529.98</ele>
        <time>2015-07-26T14:02:54Z</time>
      </trkpt>
      <trkpt lat="41.86218" lon="9.17064">
        <ele>1527.44</ele>
        <time>2015-07-26T14:03:12Z</time>
      </trkpt>
      <trkpt lat="41.86201" lon="9.17056">
        <ele>1529.46</ele>
        <time>2015-07-26T14:03:31Z</time>
      </trkpt>
      <trkpt lat="41.86183" lon="9.17048">
        <ele>1529.44</ele>
        <time>2015-07-26T14:03:49Z</time>
      </trkpt>
      <trkpt lat="41.86166" lon="9.17041">
        <ele>1532.4</ele>
        <time>2015-07-26T14:04:14Z</time>
      </trkpt>
      <trkpt lat="41.86148" lon="9.17035">
        <ele>1536.18</ele>
        <time>2015-07-26T14:04:25Z</time>
      </trkpt>
      <trkpt lat="41.8613" lon="9.1703">
        <ele>1532.99</ele>
        <time>2015-07-26T14:04:40Z</time>
      </trkpt>
      <trkpt lat="41.86112" lon="9.17024">
        <ele>1533.52</ele>
        <time>2015-07-26T14:04:58Z</time>
      </trkpt>
      <trkpt lat="41.861" lon="9.17007">
        <ele>1531.5</ele>
        <time>2015-07-26T14:05:17Z</time>
      </trkpt>
      <trkpt lat="41.86087" lon="9.16989">
        <ele>1534.5</ele>
        <time>2015-07-26T14:05:34Z</time>
      </trkpt>
      <trkpt lat="41.8607" lon="9.16977">
        <ele>1536.43</ele>
        <time>2015-07-26T14:05:51Z</time>
      </trkpt>
      <trkpt lat="41.86054" lon="9.16966">
        <ele>1536.25</ele>
        <time>2015-07-26T14:06:09Z</time>
      </trkpt>
      <trkpt lat="41.86039" lon="9.1695">
        <ele>1536.41</ele>
        <time>2015-07-26T14:06:28Z</time>
      </trkpt>
      <trkpt lat="41.86027" lon="9.16932">
        <ele>1538.67</ele>
        <time>2015-07-26T14:06:44Z</time>
      </trkpt>
      <trkpt lat="41.86014" lon="9.16914">
        <ele>1536.48</ele>
        <time>2015-07-26T14:06:59Z</time>
      </trkpt>
      <trkpt lat="41.86" lon="9.16898">
        <ele>1534.97</ele>
        <time>2015-07-26T14:07:14Z</time>
      </trkpt>
      <trkpt lat="41.85986" lon="9.16881">
        <ele>1531.5</ele>
        <time>2015-07-26T14:07:32Z</time>
      </trkpt>
      <trkpt lat="41.85976" lon="9.16861">
        <ele>1531.47</ele>
        <time>2015-07-26T14:07:46Z</time>
      </trkpt>
      <trkpt lat="41.85966" lon="9.16839">
        <ele>1529.72</ele>
        <time>2015-07-26T14:08:02Z</time>
      </trkpt>
      <trkpt lat="41.85956" lon="9.16818">
        <ele>1528.96</ele>
        <time>2015-07-26T14:08:19Z</time>
      </trkpt>
      <trkpt lat="41.85942" lon="9.16802">
        <ele>1530.34</ele>
        <time>2015-07-26T14:08:35Z</time>
      </trkpt>
      <trkpt lat="41.85926" lon="9.1679">
        <ele>1531.72</ele>
        <time>2015-07-26T14:08:52Z</time>
      </trkpt>
      <trkpt lat="41.85912" lon="9.16774">
        <ele>1531.47</ele>
        <time>2015-07-26T14:09:07Z</time>
      </trkpt>
      <trkpt lat="41.85897" lon="9.16758">
        <ele>1532.97</ele>
        <time>2015-07-26T14:09:24Z</time>
      </trkpt>
      <trkpt lat="41.8588" lon="9.16749">
        <ele>1532.96</ele>
        <time>2015-07-26T14:09:39Z</time>
      </trkpt>
      <trkpt lat="41.85863" lon="9.16739">
        <ele>1536.95</ele>
        <time>2015-07-26T14:09:55Z</time>
      </trkpt>
      <trkpt lat="41.85845" lon="9.16735">
        <ele>1536.15</ele>
        <time>2015-07-26T14:10:55Z</time>
      </trkpt>
      <trkpt lat="41.85827" lon="9.16734">
        <ele>1539.07</ele>
        <time>2015-07-26T14:11:09Z</time>
      </trkpt>
      <trkpt lat="41.8581" lon="9.16743">
        <ele>1536.51</ele>
        <time>2015-07-26T14:11:28Z</time>
      </trkpt>
      <trkpt lat="41.85792" lon="9.1675">
        <ele>1539.4</ele>
        <time>2015-07-26T14:11:47Z</time>
      </trkpt>
      <trkpt lat="41.85774" lon="9.16757">
        <ele>1541.24</ele>
        <time>2015-07-26T14:12:03Z</time>
      </trkpt>
      <trkpt lat="41.85757" lon="9.16769">
        <ele>1544.37</ele>
        <time>2015-07-26T14:12:19Z</time>
      </trkpt>
      <trkpt lat="41.85738" lon="9.16775">
        <ele>1542.48</ele>
        <time>2015-07-26T14:12:36Z</time>
      </trkpt>
      <trkpt lat="41.85719" lon="9.16778">
        <ele>1545.83</ele>
        <time>2015-07-26T14:12:51Z</time>
      </trkpt>
      <trkpt lat="41.85702" lon="9.16785">
        <ele>1545.03</ele>
        <time>2015-07-26T14:13:06Z</time>
      </trkpt>
      <trkpt lat="41.85685" lon="9.16777">
        <ele>1546.51</ele>
        <time>2015-07-26T14:13:21Z</time>
      </trkpt>
      <trkpt lat="41.85669" lon="9.16766">
        <ele>1542.34</ele>
        <time>2015-07-26T14:13:40Z</time>
      </trkpt>
      <trkpt lat="41.85651" lon="9.16757">
        <ele>1543.46</ele>
        <time>2015-07-26T14:13:57Z</time>
      </trkpt>
      <trkpt lat="41.85635" lon="9.16746">
        <ele>1543.56</ele>
        <time>2015-07-26T14:14:15Z</time>
      </trkpt>
      <trkpt lat="41.85619" lon="9.16735">
        <ele>1544.9</ele>
        <time>2015-07-26T14:14:32Z</time>
      </trkpt>
      <trkpt lat="41.85601" lon="9.16727">
        <ele>1546.33</ele>
        <time>2015-07-26T14:14:51Z</time>
      </trkpt>
      <trkpt lat="41.85583" lon="9.16722">
        <ele>1546.47</ele>
        <time>2015-07-26T14:15:09Z</time>
      </trkpt>
      <trkpt lat="41.85567" lon="9.1671">
        <ele>1546.47</ele>
        <time>2015-07-26T14:15:39Z</time>
      </trkpt>
      <trkpt lat="41.85553" lon="9.16693">
        <ele>1547.46</ele>
        <time>2015-07-26T14:15:59Z</time>
      </trkpt>
      <trkpt lat="41.85538" lon="9.16677">
        <ele>1545.48</ele>
        <time>2015-07-26T14:16:15Z</time>
      </trkpt>
      <trkpt lat="41.85527" lon="9.16656">
        <ele>1545.43</ele>
        <time>2015-07-26T14:16:30Z</time>
      </trkpt>
      <trkpt lat="41.85517" lon="9.16635">
        <ele>1544.22</ele>
        <time>2015-07-26T14:16:45Z</time>
      </trkpt>
      <trkpt lat="41.8552" lon="9.1661">
        <ele>1543.85</ele>
        <time>2015-07-26T14:17:03Z</time>
      </trkpt>
      <trkpt lat="41.85535" lon="9.16596">
        <ele>1539.98</ele>
        <time>2015-07-26T14:17:34Z</time>
      </trkpt>
    </trkseg>
  </trk>
</gpx>